Log in Register

Login to your account

Username *
Password *
Remember Me

Create an account

Fields marked with an asterisk (*) are required.
Name *
Username *
Password *
Verify password *
Email *
Verify email *

Nous contacter

 Téléphone : +33 (0)4 79 54 41 81

Coordonnées détaillées et accès : cliquez ici

 
LFLB °C
    Ferienhaus Ostsee
[source: ADDS]
METAR
LFLB 181400Z AUTO 03005KT 350V060 CAVOK 31/19 Q1014 TEMPO VRB15G30KT FEW080CB =
TAF LFLB 180800Z 1809/1909 36003KT CAVOK PROB30 TEMPO 1809/1811 FEW090TCU BECMG 1811/1813 18007KT PROB30 TEMPO 1814/1819 VRB15G30KT FEW080CB BECMG 1820/1823 VRB02KT
TAF
TAF LFLB 180800Z 1809/1909 36003KT CAVOK PROB30 TEMPO 1809/1811 FEW090TCU BECMG 1811/1813 18007KT PROB30 TEMPO 1814/1819 VRB15G30KT FEW080CB BECMG 1820/1823 VRB02KT =
SR / SS: 03:46 / 19:28 UTC (Lever/Coucher du soleil le 2021-06-18)
JSN Boot template designed by JoomlaShine.com